Time;durP1;ratioP1;P1;durP2;ratioP2;P2;SDS_P1;SDS_P2;PMS_P1;PMS_P2;Temp;Humidity;BMP_temperature;BMP_pressure;BME280_temperature;BME280_humidity;BME280_pressure;Samples;Min_cycle;Max_cycle;Signal;HPM_P1;HPM_P2
2023/04/02 00:01:25;;;;;;;8.95;5.75;;;10.00;77.80;;;;;;5002610;28;20137;-66
2023/04/02 00:04:02;;;;;;;8.80;6.00;;;10.00;77.80;;;;;;5031418;28;20084;-66
2023/04/02 00:06:33;;;;;;;8.50;5.38;;;10.00;77.80;;;;;;5030541;28;20048;-66
2023/04/02 00:09:01;;;;;;;;;;;9.90;77.80;;;;;;5043645;28;20029;-66
2023/04/02 00:11:42;;;;;;;7.63;4.45;;;9.90;77.80;;;;;;5035254;28;19909;-66
2023/04/02 00:14:28;;;;;;;8.60;4.90;;;9.90;77.80;;;;;;5038182;28;20021;-66
2023/04/02 00:16:56;;;;;;;8.60;4.97;;;9.90;77.60;;;;;;5014996;28;20466;-66
2023/04/02 00:19:45;;;;;;;7.55;4.80;;;9.90;78.30;;;;;;5046190;28;20043;-66
2023/04/02 00:22:17;;;;;;;7.47;4.43;;;9.90;77.50;;;;;;5029011;28;20029;-66
2023/04/02 00:24:43;;;;;;;7.18;4.35;;;9.90;77.50;;;;;;5042350;28;20036;-66
2023/04/02 00:27:13;;;;;;;7.90;4.53;;;9.90;77.50;;;;;;5044017;28;20450;-66
2023/04/02 00:29:51;;;;;;;8.20;4.68;;;9.90;77.30;;;;;;5009493;28;20129;-66
2023/04/02 00:32:36;;;;;;;8.95;5.18;;;9.90;77.30;;;;;;5030490;28;20125;-66
2023/04/02 00:35:03;;;;;;;8.65;4.80;;;9.90;77.10;;;;;;5036511;28;20021;-66
2023/04/02 00:37:37;;;;;;;8.18;4.90;;;9.90;77.20;;;;;;5039899;28;20039;-66
2023/04/02 00:40:27;;;;;;;8.95;5.07;;;9.90;77.10;;;;;;5035771;28;20044;-66
2023/04/02 00:42:57;;;;;;;8.77;4.43;;;9.90;76.80;;;;;;5032403;28;20216;-66
2023/04/02 00:45:31;;;;;;;7.43;4.30;;;9.90;77.00;;;;;;5035102;28;20112;-66
2023/04/02 00:48:19;;;;;;;9.48;5.30;;;9.90;77.00;;;;;;5046068;28;20033;-66
2023/04/02 00:50:46;;;;;;;8.55;4.53;;;9.90;76.90;;;;;;5034839;28;20034;-66
2023/04/02 00:53:27;;;;;;;7.65;4.60;;;9.90;77.00;;;;;;5034758;28;20382;-66
2023/04/02 00:55:54;;;;;;;9.07;4.95;;;9.80;76.80;;;;;;5023118;28;20033;-66
2023/04/02 00:58:33;;;;;;;7.60;4.63;;;9.80;76.90;;;;;;5056811;28;20048;-66
2023/04/02 01:00:59;;;;;;;9.57;5.22;;;9.80;76.70;;;;;;5049529;28;20047;-66
2023/04/02 01:03:34;;;;;;;8.52;5.20;;;9.80;76.70;;;;;;5034820;28;20021;-66
2023/04/02 01:06:09;;;;;;;7.65;4.60;;;9.80;76.50;;;;;;5034393;28;20127;-66
2023/04/02 01:09:03;;;;;;;8.30;5.43;;;9.70;76.50;;;;;;5036492;28;20353;-66
2023/04/02 01:11:44;;;;;;;8.00;4.60;;;9.70;76.40;;;;;;5032249;28;20029;-66
2023/04/02 01:14:27;;;;;;;8.27;4.90;;;9.70;76.50;;;;;;5031423;28;20025;-66
2023/04/02 01:17:25;;;;;;;8.30;5.05;;;9.70;76.40;;;;;;5035119;28;20382;-66
2023/04/02 01:20:10;;;;;;;8.32;4.78;;;9.70;76.40;;;;;;5010497;28;20057;-66
2023/04/02 01:22:54;;;;;;;8.40;5.00;;;9.70;76.30;;;;;;5033775;28;20351;-66
2023/04/02 01:25:41;;;;;;;8.63;5.20;;;9.60;76.40;;;;;;5035107;28;20029;-66
2023/04/02 01:28:30;;;;;;;8.25;4.70;;;9.60;76.20;;;;;;5032312;28;20052;-66
2023/04/02 01:31:00;;;;;;;10.30;5.07;;;9.60;76.10;;;;;;5033526;28;20026;-66
2023/04/02 01:33:33;;;;;;;7.57;4.65;;;9.60;76.10;;;;;;5035749;28;20021;-66
2023/04/02 01:36:10;;;;;;;9.73;5.10;;;9.50;76.10;;;;;;5034400;28;20040;-66
2023/04/02 01:38:44;;;;;;;8.70;4.38;;;9.50;76.10;;;;;;5017931;28;20025;-66
2023/04/02 01:41:25;;;;;;;8.00;4.43;;;9.50;76.70;;;;;;5035193;28;20075;-66
2023/04/02 01:44:00;;;;;;;8.18;4.57;;;9.50;75.90;;;;;;5034903;28;20116;-66
2023/04/02 01:46:32;;;;;;;7.50;4.38;;;9.50;75.90;;;;;;5033599;28;20090;-66
2023/04/02 01:49:10;;;;;;;7.90;4.68;;;9.50;75.80;;;;;;5034324;28;20053;-66
2023/04/02 01:51:41;;;;;;;8.20;5.22;;;9.50;75.70;;;;;;5033821;28;20040;-66
2023/04/02 01:54:09;;;;;;;8.95;5.30;;;9.50;75.60;;;;;;5035438;28;20025;-66
2023/04/02 01:56:35;;;;;;;8.20;5.22;;;9.40;75.50;;;;;;5034145;28;20041;-66
2023/04/02 01:59:04;;;;;;;8.55;5.40;;;9.40;75.60;;;;;;5032965;28;20124;-66
2023/04/02 02:02:03;;;;;;;7.90;5.00;;;9.40;75.50;;;;;;5030116;28;20104;-66
2023/04/02 02:04:31;;;;;;;9.43;5.07;;;9.40;75.20;;;;;;5034667;28;20045;-66
2023/04/02 02:07:00;;;;;;;8.25;5.53;;;9.30;75.30;;;;;;5034107;28;20025;-66
2023/04/02 02:09:31;;;;;;;8.38;5.50;;;9.30;75.20;;;;;;5017747;28;20074;-66
2023/04/02 02:11:58;;;;;;;8.55;5.45;;;9.30;75.30;;;;;;5016439;28;20017;-66
2023/04/02 02:14:26;;;;;;;8.18;5.32;;;9.30;75.30;;;;;;5035652;28;20025;-66
2023/04/02 02:16:58;;;;;;;10.10;5.53;;;9.30;75.20;;;;;;5016670;28;20376;-66
2023/04/02 02:19:31;;;;;;;9.02;5.32;;;9.30;75.10;;;;;;5032496;28;20037;-66
2023/04/02 02:22:07;;;;;;;8.50;5.38;;;9.40;75.80;;;;;;5017320;28;20080;-66
2023/04/02 02:24:35;;;;;;;11.45;5.90;;;9.40;75.10;;;;;;5034633;28;20052;-66
2023/04/02 02:27:23;;;;;;;9.82;6.20;;;9.40;75.10;;;;;;5032098;28;20030;-66
2023/04/02 02:30:02;;;;;;;10.80;5.97;;;9.40;75.00;;;;;;5030913;28;20033;-66
2023/04/02 02:32:31;;;;;;;10.32;6.68;;;9.40;75.10;;;;;;5032141;28;20083;-66
2023/04/02 02:35:06;;;;;;;9.07;6.43;;;9.40;75.10;;;;;;5046283;28;20025;-66
2023/04/02 02:37:39;;;;;;;10.90;6.90;;;9.40;75.10;;;;;;5036806;28;20032;-66
2023/04/02 02:40:11;;;;;;;10.50;7.40;;;9.40;75.10;;;;;;5032516;28;20029;-66
2023/04/02 02:42:49;;;;;;;9.90;6.82;;;9.40;75.10;;;;;;5042063;28;20025;-66
2023/04/02 02:45:21;;;;;;;12.05;7.18;;;9.30;75.10;;;;;;5030035;28;20018;-66
2023/04/02 02:47:48;;;;;;;9.88;6.60;;;9.30;75.10;;;;;;5020055;28;20045;-66
2023/04/02 02:50:22;;;;;;;9.93;6.05;;;9.20;75.20;;;;;;5034625;28;20374;-66
2023/04/02 02:52:58;;;;;;;8.75;5.93;;;9.20;75.20;;;;;;5018512;28;20350;-66
2023/04/02 02:55:36;;;;;;;9.97;6.47;;;9.10;75.10;;;;;;5016083;28;20414;-66
2023/04/02 02:58:31;;;;;;;10.10;5.80;;;9.10;75.10;;;;;;5038179;28;20063;-66
2023/04/02 03:01:17;;;;;;;13.10;5.93;;;9.10;75.10;;;;;;5038696;28;20041;-66
2023/04/02 03:03:46;;;;;;;10.18;5.60;;;9.10;75.10;;;;;;5044818;28;20179;-66
2023/04/02 03:06:19;;;;;;;11.70;5.80;;;9.00;75.00;;;;;;5042330;28;20029;-66
2023/04/02 03:09:09;;;;;;;10.15;4.93;;;9.00;75.00;;;;;;5040427;28;20334;-66
2023/04/02 03:11:43;;;;;;;9.20;5.53;;;9.00;74.90;;;;;;5034217;28;20036;-66
2023/04/02 03:14:31;;;;;;;10.38;4.72;;;9.00;74.90;;;;;;5036683;28;20079;-66
2023/04/02 03:17:03;;;;;;;9.68;5.20;;;9.00;74.80;;;;;;5028191;28;20083;-66
2023/04/02 03:19:41;;;;;;;9.07;5.10;;;9.00;75.00;;;;;;5031689;28;20025;-66
2023/04/02 03:22:22;;;;;;;7.10;4.45;;;9.00;74.60;;;;;;5033298;28;20037;-66
2023/04/02 03:24:56;;;;;;;8.20;4.50;;;9.00;74.50;;;;;;5026007;28;20061;-66
2023/04/02 03:27:28;;;;;;;8.73;5.55;;;9.00;74.50;;;;;;5031356;28;20029;-66
2023/04/02 03:30:04;;;;;;;8.45;5.15;;;9.00;74.40;;;;;;5032672;28;20044;-66
2023/04/02 03:32:37;;;;;;;8.13;4.60;;;9.00;74.30;;;;;;5016401;28;20108;-66
2023/04/02 03:35:23;;;;;;;7.53;4.65;;;9.00;74.30;;;;;;5032618;28;20033;-66
2023/04/02 03:38:00;;;;;;;8.00;4.63;;;9.00;74.20;;;;;;5031383;28;20021;-66
2023/04/02 03:40:41;;;;;;;7.88;4.80;;;9.00;74.10;;;;;;5033455;28;20319;-66
2023/04/02 03:43:24;;;;;;;7.80;4.65;;;9.00;74.00;;;;;;5028620;28;20025;-66
2023/04/02 03:46:15;;;;;;;8.63;5.13;;;9.00;73.90;;;;;;5004811;28;20040;-66
2023/04/02 03:48:46;;;;;;;8.55;5.03;;;8.90;74.50;;;;;;5030673;28;20072;-66
2023/04/02 03:51:28;;;;;;;9.38;5.75;;;8.90;73.90;;;;;;5030566;28;20045;-66
2023/04/02 03:53:55;;;;;;;8.85;5.70;;;8.90;73.80;;;;;;5013840;28;20029;-66
2023/04/02 03:56:25;;;;;;;12.48;5.55;;;8.90;73.80;;;;;;5029065;28;20091;-66
2023/04/02 03:59:00;;;;;;;10.02;5.63;;;8.80;73.80;;;;;;5017405;28;20430;-66
2023/04/02 04:01:41;;;;;;;9.35;6.20;;;8.80;73.80;;;;;;5020646;28;20029;-66
2023/04/02 04:04:15;;;;;;;9.57;5.85;;;8.90;73.70;;;;;;5042370;28;20025;-66
2023/04/02 04:06:44;;;;;;;11.68;6.80;;;8.80;73.50;;;;;;5031744;28;20441;-66
2023/04/02 04:09:36;;;;;;;12.52;6.15;;;8.80;73.40;;;;;;5029300;28;20029;-66
2023/04/02 04:12:20;;;;;;;10.18;5.63;;;8.70;73.20;;;;;;5024833;28;20034;-66
2023/04/02 04:15:06;;;;;;;10.02;6.22;;;8.70;73.40;;;;;;5012391;28;20029;-66
2023/04/02 04:17:56;;;;;;;9.93;6.63;;;8.70;73.30;;;;;;5015975;28;20339;-66
2023/04/02 04:20:44;;;;;;;8.88;6.05;;;8.60;73.20;;;;;;5022463;28;20401;-66
2023/04/02 04:23:35;;;;;;;11.07;6.55;;;8.70;73.20;;;;;;5025363;28;20026;-66
2023/04/02 04:26:41;;;;;;;9.70;6.05;;;8.70;73.10;;;;;;5028498;28;20040;-66
2023/04/02 04:29:16;;;;;;;8.75;5.40;;;8.70;73.10;;;;;;5002760;28;20037;-66
2023/04/02 04:31:48;;;;;;;9.35;6.32;;;8.70;73.00;;;;;;4999903;28;20371;-66
2023/04/02 04:34:25;;;;;;;;;;;8.70;73.00;;;;;;5014770;28;20036;-66
2023/04/02 04:37:00;;;;;;;10.45;5.63;;;8.70;73.00;;;;;;4998727;28;19967;-66
2023/04/02 04:40:08;;;;;;;8.38;5.50;;;8.60;73.00;;;;;;5028996;28;20042;-66
2023/04/02 04:42:36;;;;;;;9.88;5.85;;;8.70;72.90;;;;;;5028391;28;20048;-66
2023/04/02 04:45:24;;;;;;;9.90;4.68;;;8.60;72.90;;;;;;5000739;28;20438;-66
2023/04/02 04:47:59;;;;;;;8.35;4.88;;;8.60;72.70;;;;;;5016814;28;20048;-66
2023/04/02 04:50:32;;;;;;;7.65;4.30;;;8.60;72.40;;;;;;5022938;28;20029;-66
2023/04/02 04:53:06;;;;;;;7.93;4.32;;;8.50;72.20;;;;;;5019193;28;20032;-66
2023/04/02 04:55:42;;;;;;;8.48;4.05;;;8.50;72.00;;;;;;5018399;28;20034;-66
2023/04/02 04:58:53;;;;;;;7.18;3.80;;;8.40;71.80;;;;;;5031524;28;20469;-66
2023/04/02 05:01:36;;;;;;;8.50;3.60;;;8.40;71.50;;;;;;5043176;28;20101;-66
2023/04/02 05:04:36;;;;;;;6.35;3.35;;;8.40;71.50;;;;;;5035158;28;20032;-66
2023/04/02 05:07:20;;;;;;;7.60;3.25;;;8.40;71.10;;;;;;5031941;28;20102;-66
2023/04/02 05:10:07;;;;;;;6.03;3.15;;;8.30;70.90;;;;;;5030349;28;20049;-66
2023/04/02 05:12:42;;;;;;;8.52;3.60;;;8.20;70.80;;;;;;5048944;28;20404;-66
2023/04/02 05:15:25;;;;;;;7.10;3.47;;;8.20;70.80;;;;;;5016789;28;20021;-66
2023/04/02 05:17:53;;;;;;;9.80;3.38;;;8.10;70.50;;;;;;5021691;28;20039;-65
2023/04/02 05:20:34;;;;;;;9.38;3.97;;;8.10;70.50;;;;;;5030087;28;20430;-65
2023/04/02 05:23:07;;;;;;;6.20;2.85;;;8.10;70.30;;;;;;5027120;28;20477;-65
2023/04/02 05:25:33;;;;;;;7.63;3.17;;;8.00;71.00;;;;;;5033861;28;20035;-65
2023/04/02 05:28:02;;;;;;;5.75;2.83;;;8.00;70.40;;;;;;5018064;28;20453;-65
2023/04/02 05:30:28;;;;;;;7.78;3.20;;;8.00;70.20;;;;;;5036667;28;20038;-65
2023/04/02 05:33:22;;;;;;;6.03;2.75;;;8.00;70.00;;;;;;5022832;28;20521;-65
2023/04/02 05:35:54;;;;;;;6.90;2.80;;;8.00;69.80;;;;;;5024307;28;21283;-65
2023/04/02 05:38:24;;;;;;;7.25;2.60;;;8.00;69.90;;;;;;5045811;28;20029;-65
2023/04/02 05:41:27;;;;;;;6.38;2.70;;;8.00;69.80;;;;;;5040262;28;20112;-65
2023/04/02 05:44:10;;;;;;;6.20;2.40;;;8.10;69.60;;;;;;5054823;28;20045;-65
2023/04/02 05:46:46;;;;;;;7.35;2.80;;;8.00;69.40;;;;;;5041198;28;20061;-65
2023/04/02 05:49:38;;;;;;;6.78;2.63;;;8.00;69.40;;;;;;5037292;28;20032;-65
2023/04/02 05:52:29;;;;;;;5.10;2.15;;;8.00;69.30;;;;;;5010880;28;20139;-65
2023/04/02 05:55:13;;;;;;;7.00;2.90;;;8.00;69.30;;;;;;5025863;28;20017;-65
2023/04/02 05:58:04;;;;;;;7.07;2.28;;;8.00;69.20;;;;;;5042486;28;20040;-65
2023/04/02 06:00:39;;;;;;;6.00;2.25;;;7.90;69.10;;;;;;5041001;28;20040;-65
2023/04/02 06:03:50;;;;;;;8.10;2.40;;;7.90;69.10;;;;;;5053346;28;20107;-65
2023/04/02 06:06:42;;;;;;;6.10;2.10;;;8.00;69.00;;;;;;5019728;28;20713;-65
2023/04/02 06:09:35;;;;;;;4.63;1.67;;;7.90;68.90;;;;;;5033785;28;20339;-65
2023/04/02 06:12:23;;;;;;;5.38;1.98;;;7.90;69.00;;;;;;5053425;28;20025;-65
2023/04/02 06:14:49;;;;;;;5.93;2.00;;;7.90;68.80;;;;;;5032728;28;20030;-65
2023/04/02 06:17:18;;;;;;;5.85;2.03;;;7.90;68.80;;;;;;5033221;28;20032;-65
2023/04/02 06:19:46;;;;;;;6.50;2.00;;;7.90;68.70;;;;;;5016520;28;20065;-66
2023/04/02 06:22:31;;;;;;;5.72;2.10;;;7.90;68.70;;;;;;5032814;28;20029;-66
2023/04/02 06:25:10;;;;;;;7.10;2.53;;;8.00;68.50;;;;;;5010233;28;20025;-66
2023/04/02 06:27:42;;;;;;;6.25;2.30;;;8.00;68.50;;;;;;5031764;28;20026;-66
2023/04/02 06:30:22;;;;;;;5.95;2.08;;;8.00;68.50;;;;;;5032871;28;20025;-66
2023/04/02 06:32:50;;;;;;;5.80;2.60;;;8.00;68.20;;;;;;5015507;28;20029;-66
2023/04/02 06:35:17;;;;;;;7.88;2.40;;;8.00;68.20;;;;;;5034395;28;20026;-66
2023/04/02 06:37:48;;;;;;;4.53;2.10;;;8.00;67.90;;;;;;5033416;28;20522;-66
2023/04/02 06:40:23;;;;;;;5.97;2.30;;;7.90;67.80;;;;;;5049715;28;20319;-66
2023/04/02 06:42:58;;;;;;;4.40;1.90;;;7.90;67.70;;;;;;5033383;28;20026;-66
2023/04/02 06:45:54;;;;;;;6.03;2.33;;;7.90;67.70;;;;;;5033145;28;20409;-66
2023/04/02 06:48:32;;;;;;;5.10;2.00;;;7.80;67.80;;;;;;5038602;28;20032;-66
2023/04/02 06:51:06;;;;;;;6.47;1.92;;;7.80;67.60;;;;;;5040770;28;20014;-66
2023/04/02 06:53:33;;;;;;;7.15;2.22;;;7.80;67.50;;;;;;5038520;28;20013;-66
2023/04/02 06:56:05;;;;;;;5.23;1.93;;;7.80;67.60;;;;;;5042363;28;20072;-66
2023/04/02 06:58:33;;;;;;;7.00;2.17;;;7.70;67.40;;;;;;5015586;28;20037;-66
2023/04/02 07:01:00;;;;;;;5.75;2.10;;;7.70;67.50;;;;;;5034403;28;20509;-65
2023/04/02 07:03:44;;;;;;;5.82;1.75;;;7.60;67.50;;;;;;5017972;28;20021;-66
2023/04/02 07:06:20;;;;;;;4.95;1.75;;;7.70;67.60;;;;;;5037166;28;20025;-66
2023/04/02 07:08:48;;;;;;;8.13;2.22;;;7.60;67.40;;;;;;5045664;28;20029;-65
2023/04/02 07:11:17;;;;;;;4.95;1.90;;;7.70;67.40;;;;;;5019587;28;20120;-66
2023/04/02 07:13:44;;;;;;;4.93;2.17;;;7.70;67.30;;;;;;5033206;28;20025;-66
2023/04/02 07:16:15;;;;;;;7.07;2.10;;;7.70;67.70;;;;;;5033050;28;20017;-66
2023/04/02 07:18:42;;;;;;;5.50;2.05;;;7.80;67.00;;;;;;5029155;28;20017;-65
2023/04/02 07:21:08;;;;;;;5.85;1.95;;;7.80;67.00;;;;;;5033151;28;20026;-65
2023/04/02 07:23:33;;;;;;;5.65;2.10;;;7.80;66.90;;;;;;5033388;28;20048;-65
2023/04/02 07:26:01;;;;;;;5.80;2.55;;;7.90;66.80;;;;;;5032145;28;20453;-66
2023/04/02 07:28:27;;;;;;;6.45;2.20;;;7.90;66.60;;;;;;5034469;28;20446;-65
2023/04/02 07:30:54;;;;;;;7.60;2.67;;;7.90;66.50;;;;;;5032303;28;20482;-68
2023/04/02 07:33:23;;;;;;;7.33;2.53;;;7.90;66.40;;;;;;5033138;28;20025;-66
2023/04/02 07:35:50;;;;;;;5.75;2.20;;;7.90;66.40;;;;;;5032761;28;20480;-65
2023/04/02 07:38:16;;;;;;;5.63;2.40;;;7.90;66.40;;;;;;5033391;28;20021;-65
2023/04/02 07:40:42;;;;;;;9.35;2.50;;;7.90;66.30;;;;;;5030955;28;20037;-65
2023/04/02 07:43:08;;;;;;;6.47;2.60;;;8.00;66.40;;;;;;5016572;28;20021;-66
2023/04/02 07:45:34;;;;;;;6.32;2.40;;;8.00;66.20;;;;;;5032618;28;20087;-66
2023/04/02 07:48:12;;;;;;;7.70;2.40;;;8.00;66.10;;;;;;5031302;28;20033;-66
2023/04/02 07:50:37;;;;;;;6.38;2.30;;;8.00;65.90;;;;;;5043952;28;20037;-64
2023/04/02 07:53:04;;;;;;;6.90;2.50;;;8.00;66.00;;;;;;5032825;28;20021;-64
2023/04/02 07:55:30;;;;;;;7.30;2.40;;;8.00;66.00;;;;;;5030214;28;20353;-64
2023/04/02 07:57:58;;;;;;;4.60;1.90;;;8.10;66.00;;;;;;5031847;28;20041;-64
2023/04/02 08:00:25;;;;;;;7.97;2.60;;;8.10;65.90;;;;;;5031935;28;20033;-65
2023/04/02 08:02:52;;;;;;;8.02;2.70;;;8.10;65.70;;;;;;5030799;28;20110;-64
2023/04/02 08:05:17;;;;;;;6.88;2.72;;;8.20;65.80;;;;;;5028396;28;20413;-64
2023/04/02 08:07:51;;;;;;;6.97;2.70;;;8.20;65.70;;;;;;5032579;28;20037;-64
2023/04/02 08:10:18;;;;;;;8.00;2.85;;;8.10;65.60;;;;;;5029208;28;20056;-65
2023/04/02 08:12:44;;;;;;;7.00;2.90;;;8.20;65.70;;;;;;5031717;28;20028;-65
2023/04/02 08:15:15;;;;;;;5.97;2.53;;;8.20;65.60;;;;;;5032226;28;20021;-65
2023/04/02 08:17:41;;;;;;;5.38;2.55;;;8.10;65.40;;;;;;5033687;28;20083;-64
2023/04/02 08:20:18;;;;;;;6.63;2.67;;;8.10;65.50;;;;;;5031894;28;20029;-65
2023/04/02 08:22:45;;;;;;;8.60;2.95;;;8.10;65.50;;;;;;5032947;28;20510;-66
2023/04/02 08:25:11;;;;;;;5.55;2.40;;;8.10;65.40;;;;;;5032655;28;20049;-65
2023/04/02 08:27:37;;;;;;;6.28;2.65;;;8.10;65.40;;;;;;5028691;28;20032;-64
2023/04/02 08:30:05;;;;;;;8.10;2.83;;;8.10;65.50;;;;;;5030049;28;20033;-65
2023/04/02 08:32:31;;;;;;;6.45;2.00;;;8.10;65.50;;;;;;5031360;28;20438;-65
2023/04/02 08:34:56;;;;;;;4.75;2.15;;;8.10;65.30;;;;;;5033400;28;20032;-65
2023/04/02 08:37:22;;;;;;;5.13;2.13;;;8.20;65.30;;;;;;5031065;28;20075;-65
2023/04/02 08:39:48;;;;;;;5.20;2.20;;;8.20;65.10;;;;;;5031416;28;20018;-65
2023/04/02 08:42:36;;;;;;;4.35;2.15;;;8.30;65.10;;;;;;5029917;28;20022;-65
2023/04/02 08:45:17;;;;;;;5.95;2.10;;;8.30;64.90;;;;;;5032752;28;20025;-65
2023/04/02 08:47:44;;;;;;;5.93;2.50;;;8.30;64.90;;;;;;5029921;28;20080;-65
2023/04/02 08:50:34;;;;;;;5.22;2.40;;;8.30;65.00;;;;;;5032611;28;20029;-65
2023/04/02 08:53:04;;;;;;;6.22;2.33;;;8.40;64.90;;;;;;5027543;28;20033;-65
2023/04/02 08:55:41;;;;;;;5.75;2.38;;;8.40;64.90;;;;;;5033777;28;20029;-65
2023/04/02 08:58:22;;;;;;;5.80;2.58;;;8.50;64.80;;;;;;5031968;28;20347;-64
2023/04/02 09:00:56;;;;;;;6.90;3.08;;;8.50;64.60;;;;;;5032015;28;20042;-65
2023/04/02 09:03:37;;;;;;;4.75;2.30;;;8.50;64.60;;;;;;5019771;28;20030;-64
2023/04/02 09:06:06;;;;;;;6.40;2.38;;;8.50;64.50;;;;;;5032568;28;20026;-65
2023/04/02 09:08:32;;;;;;;5.95;2.67;;;8.50;64.40;;;;;;5033169;28;20455;-65
2023/04/02 09:11:17;;;;;;;5.40;2.22;;;8.60;64.50;;;;;;5033901;28;20029;-65
2023/04/02 09:13:46;;;;;;;8.75;2.70;;;8.60;64.30;;;;;;5021261;28;20037;-65
2023/04/02 09:16:21;;;;;;;7.97;2.67;;;8.60;64.20;;;;;;5019595;28;20022;-65
2023/04/02 09:18:51;;;;;;;8.30;3.10;;;8.70;64.10;;;;;;5036241;28;20560;-64
2023/04/02 09:21:33;;;;;;;10.45;2.92;;;8.70;63.90;;;;;;5038320;28;20028;-64
2023/04/02 09:24:00;;;;;;;6.32;2.45;;;8.70;63.70;;;;;;5042849;28;20026;-64
2023/04/02 09:26:29;;;;;;;5.47;2.72;;;8.70;64.40;;;;;;5040343;28;20076;-64
2023/04/02 09:29:26;;;;;;;7.15;3.30;;;8.80;63.80;;;;;;5055830;28;20034;-64
2023/04/02 09:32:08;;;;;;;9.48;2.80;;;8.90;63.50;;;;;;5040452;28;20031;-64
2023/04/02 09:34:35;;;;;;;6.35;2.13;;;8.90;63.50;;;;;;5025882;28;20406;-64
2023/04/02 09:37:14;;;;;;;5.75;2.30;;;8.90;63.40;;;;;;5044609;28;20017;-64
2023/04/02 09:39:40;;;;;;;5.47;2.05;;;8.90;63.00;;;;;;5044671;28;20125;-64
2023/04/02 09:42:32;;;;;;;8.57;2.40;;;8.90;62.90;;;;;;5021217;28;20120;-64
2023/04/02 09:45:21;;;;;;;5.22;2.22;;;9.00;62.80;;;;;;5039256;28;20037;-64
2023/04/02 09:47:49;;;;;;;8.10;2.50;;;9.00;62.90;;;;;;5042553;28;20069;-64
2023/04/02 09:50:22;;;;;;;7.53;2.30;;;9.10;62.90;;;;;;5038046;28;20018;-64
2023/04/02 09:52:49;;;;;;;4.78;1.95;;;9.10;62.60;;;;;;5044639;28;20025;-63
2023/04/02 09:55:14;;;;;;;6.80;2.25;;;9.20;62.70;;;;;;5037978;28;20449;-63
2023/04/02 09:57:41;;;;;;;4.13;2.00;;;9.20;62.40;;;;;;5044648;28;20098;-64
2023/04/02 10:00:20;;;;;;;5.00;2.20;;;9.20;62.30;;;;;;5038306;28;20026;-64
2023/04/02 10:03:03;;;;;;;6.70;2.20;;;9.20;62.20;;;;;;5036993;28;20462;-63
2023/04/02 10:05:30;;;;;;;5.60;2.20;;;9.30;62.20;;;;;;5033900;28;20032;-64
2023/04/02 10:08:07;;;;;;;6.78;2.15;;;9.30;62.20;;;;;;5044590;28;20078;-64
2023/04/02 10:10:42;;;;;;;6.07;2.00;;;9.30;62.10;;;;;;5042161;28;20215;-64
2023/04/02 10:13:27;;;;;;;6.97;2.03;;;9.30;62.00;;;;;;5041714;28;20398;-64
2023/04/02 10:16:11;;;;;;;4.25;1.80;;;9.30;61.90;;;;;;5030874;28;20029;-63
2023/04/02 10:18:47;;;;;;;7.32;1.70;;;9.30;61.60;;;;;;5035114;28;20037;-63
2023/04/02 10:21:24;;;;;;;4.45;1.95;;;9.40;61.30;;;;;;5032016;28;20060;-64
2023/04/02 10:23:49;;;;;;;5.65;2.05;;;9.70;60.90;;;;;;5035464;28;20109;-64
2023/04/02 10:26:40;;;;;;;5.22;1.83;;;10.10;60.20;;;;;;5032578;28;20108;-64
2023/04/02 10:29:11;;;;;;;3.95;1.50;;;10.60;59.40;;;;;;5035610;28;20037;-63
2023/04/02 10:31:49;;;;;;;4.28;1.77;;;10.90;58.80;;;;;;5033669;28;20025;-64
2023/04/02 10:34:22;;;;;;;4.25;1.60;;;11.20;58.10;;;;;;5032338;28;20014;-64
2023/04/02 10:37:26;;;;;;;5.05;1.80;;;11.50;57.70;;;;;;5032129;28;20109;-63
2023/04/02 10:40:00;;;;;;;4.70;1.65;;;11.70;57.00;;;;;;5031404;28;20041;-64
2023/04/02 10:42:45;;;;;;;3.50;1.42;;;12.00;56.80;;;;;;5030894;28;20077;-63
2023/04/02 10:45:21;;;;;;;4.20;1.45;;;12.20;56.40;;;;;;5032683;28;20040;-64
2023/04/02 10:48:17;;;;;;;4.70;1.98;;;12.20;56.20;;;;;;5030959;28;20128;-64
2023/04/02 10:50:56;;;;;;;5.85;1.90;;;12.20;56.10;;;;;;5035255;28;20037;-64
2023/04/02 10:53:38;;;;;;;6.45;1.95;;;12.20;56.30;;;;;;5034050;28;20451;-64
2023/04/02 10:56:10;;;;;;;4.72;1.90;;;12.10;56.20;;;;;;5017365;28;20032;-64
2023/04/02 10:58:44;;;;;;;4.63;2.13;;;12.30;56.00;;;;;;5027239;28;20037;-63
2023/04/02 11:01:15;;;;;;;4.60;2.03;;;12.50;55.80;;;;;;5034891;28;20056;-63
2023/04/02 11:03:47;;;;;;;4.60;1.67;;;12.80;55.50;;;;;;5032877;28;20120;-63
2023/04/02 11:06:25;;;;;;;5.60;1.83;;;13.10;55.20;;;;;;5034292;28;20064;-64
2023/04/02 11:09:00;;;;;;;5.55;1.90;;;13.30;54.60;;;;;;5032716;28;20415;-64
2023/04/02 11:11:30;;;;;;;7.30;1.75;;;13.40;54.30;;;;;;5009448;28;20227;-64
2023/04/02 11:14:00;;;;;;;5.28;1.45;;;13.50;53.70;;;;;;5015832;28;20365;-64
2023/04/02 11:16:26;;;;;;;7.47;2.58;;;13.50;53.50;;;;;;5037792;28;20029;-64
2023/04/02 11:19:13;;;;;;;8.20;1.90;;;13.50;53.30;;;;;;5043889;28;20120;-64
2023/04/02 11:21:41;;;;;;;4.93;1.80;;;13.50;52.90;;;;;;5031659;28;20434;-64
2023/04/02 11:24:32;;;;;;;6.28;1.67;;;13.60;52.90;;;;;;5044952;28;20078;-63
2023/04/02 11:27:04;;;;;;;8.23;1.83;;;13.60;52.30;;;;;;5041284;28;20056;-64
2023/04/02 11:29:33;;;;;;;5.82;1.80;;;13.60;52.60;;;;;;5040381;28;20033;-63
2023/04/02 11:32:13;;;;;;;6.60;1.58;;;13.70;52.60;;;;;;5039551;28;20089;-63
2023/04/02 11:34:47;;;;;;;4.72;1.70;;;13.70;51.80;;;;;;5047330;28;20063;-63
2023/04/02 11:37:38;;;;;;;5.75;1.75;;;13.70;51.70;;;;;;5036496;28;20044;-63
2023/04/02 11:40:15;;;;;;;6.85;1.75;;;13.60;51.00;;;;;;5040576;28;20037;-63
2023/04/02 11:42:44;;;;;;;4.30;1.55;;;13.50;51.40;;;;;;5032764;28;20430;-63
2023/04/02 11:45:19;;;;;;;4.43;1.77;;;13.50;51.40;;;;;;5036690;28;20031;-67
2023/04/02 11:48:00;;;;;;;4.63;1.42;;;13.50;51.20;;;;;;5029560;28;20042;-64
2023/04/02 11:50:46;;;;;;;5.40;1.70;;;13.50;51.10;;;;;;5043652;28;20033;-64
2023/04/02 11:53:15;;;;;;;4.18;1.58;;;13.60;51.30;;;;;;5036032;28;20354;-65
2023/04/02 11:55:46;;;;;;;4.85;1.58;;;13.60;50.80;;;;;;5038895;28;20025;-64
2023/04/02 11:58:50;;;;;;;7.32;2.10;;;13.50;50.60;;;;;;5043940;28;20037;-64
2023/04/02 12:01:17;;;;;;;3.45;1.60;;;13.60;50.50;;;;;;5030053;28;20033;-64
2023/04/02 12:04:15;;;;;;;6.80;1.83;;;13.50;50.50;;;;;;5047592;28;20033;-64
2023/04/02 12:06:50;;;;;;;5.47;1.90;;;13.40;50.30;;;;;;5051588;28;20041;-63
2023/04/02 12:09:26;;;;;;;5.53;1.85;;;13.30;50.40;;;;;;5045132;28;20033;-64
2023/04/02 12:11:55;;;;;;;5.35;1.80;;;13.20;50.40;;;;;;5040157;28;20041;-64
2023/04/02 12:14:49;;;;;;;6.10;1.83;;;13.20;50.60;;;;;;5032824;28;20021;-64
2023/04/02 12:17:33;;;;;;;5.43;2.05;;;13.20;50.60;;;;;;5030302;28;20398;-64
2023/04/02 12:20:21;;;;;;;5.13;1.75;;;13.10;50.30;;;;;;5033893;28;20033;-64
2023/04/02 12:22:53;;;;;;;4.53;1.70;;;13.00;50.50;;;;;;5030900;28;20120;-64
2023/04/02 12:25:21;;;;;;;;;;;13.10;50.70;;;;;;5026554;28;20033;-64
2023/04/02 12:27:48;;;;;;;5.35;1.75;;;13.10;51.10;;;;;;5024222;28;19995;-64
2023/04/02 12:30:20;;;;;;;5.43;1.73;;;13.20;51.00;;;;;;5027244;28;20029;-64
2023/04/02 12:32:46;;;;;;;3.65;1.50;;;13.10;50.70;;;;;;5009295;28;20036;-68
2023/04/02 12:35:31;;;;;;;3.85;1.50;;;13.10;51.60;;;;;;5023646;28;20045;-64
2023/04/02 12:37:56;;;;;;;6.97;1.70;;;13.00;50.80;;;;;;5025663;28;20025;-64
2023/04/02 12:40:23;;;;;;;4.28;1.70;;;13.00;50.90;;;;;;5025375;28;20087;-63
2023/04/02 12:42:49;;;;;;;4.05;1.58;;;13.00;50.80;;;;;;5024454;28;20497;-64
2023/04/02 12:45:24;;;;;;;3.90;1.63;;;12.90;50.70;;;;;;5031878;28;20453;-65
2023/04/02 12:47:52;;;;;;;4.40;1.55;;;12.80;50.40;;;;;;5030248;28;20061;-65
2023/04/02 12:50:19;;;;;;;5.00;1.80;;;12.70;50.70;;;;;;5033828;28;20052;-64
2023/04/02 12:52:57;;;;;;;4.22;1.55;;;12.70;50.60;;;;;;5027710;28;20387;-65
2023/04/02 12:55:24;;;;;;;4.38;1.42;;;12.70;50.30;;;;;;5031766;28;20032;-64
2023/04/02 12:57:58;;;;;;;4.88;1.63;;;12.70;50.50;;;;;;5030280;28;20041;-65
2023/04/02 13:00:24;;;;;;;5.32;1.77;;;12.60;50.20;;;;;;5021250;28;20037;-65
2023/04/02 13:02:51;;;;;;;5.32;1.70;;;12.60;50.30;;;;;;5038367;28;20098;-66
2023/04/02 13:05:32;;;;;;;18.52;5.82;;;12.50;50.40;;;;;;5030188;28;20423;-67
2023/04/02 13:07:58;;;;;;;11.93;4.22;;;12.50;50.40;;;;;;5030031;28;20091;-65
2023/04/02 13:10:26;;;;;;;7.50;3.03;;;12.50;50.50;;;;;;5026404;28;20493;-66
2023/04/02 13:13:00;;;;;;;6.63;2.13;;;12.40;50.40;;;;;;5029258;28;20028;-64
2023/04/02 13:15:30;;;;;;;6.70;2.72;;;12.50;50.50;;;;;;5035120;28;20022;-63
2023/04/02 13:18:05;;;;;;;5.85;2.33;;;12.40;50.50;;;;;;5030100;28;20116;-63
2023/04/02 13:20:42;;;;;;;5.55;1.90;;;12.40;50.60;;;;;;5029126;28;20052;-63
2023/04/02 13:23:29;;;;;;;4.72;1.80;;;12.30;50.50;;;;;;5026423;28;20355;-63
2023/04/02 13:26:10;;;;;;;4.90;1.95;;;12.30;50.60;;;;;;5026746;28;20083;-63
2023/04/02 13:28:36;;;;;;;5.18;1.88;;;12.30;50.80;;;;;;5029432;28;20031;-63
2023/04/02 13:31:02;;;;;;;4.57;1.67;;;12.30;50.90;;;;;;5026612;28;20056;-64
2023/04/02 13:33:28;;;;;;;4.60;1.60;;;12.30;50.80;;;;;;5026148;28;20366;-63
2023/04/02 13:35:54;;;;;;;3.90;1.58;;;12.20;50.60;;;;;;5028018;28;20038;-64
2023/04/02 13:38:20;;;;;;;5.18;1.80;;;12.20;50.70;;;;;;5026324;28;20037;-63
2023/04/02 13:40:46;;;;;;;3.53;1.40;;;12.20;50.70;;;;;;5029192;28;20048;-63